Time;durP1;ratioP1;P1;durP2;ratioP2;P2;SDS_P1;SDS_P2;PMS_P1;PMS_P2;Temp;Humidity;BMP_temperature;BMP_pressure;BME280_temperature;BME280_humidity;BME280_pressure;Samples;Min_cycle;Max_cycle;Signal;HPM_P1;HPM_P2
2021/12/02 00:01:23;;;;;;;8.90;1.77;;;4.80;99.90;;;;;;5034485;28;20060;-76
2021/12/02 00:03:49;;;;;;;7.17;1.23;;;4.90;99.90;;;;;;5034304;28;20128;-76
2021/12/02 00:06:18;;;;;;;8.63;1.55;;;4.90;99.90;;;;;;5034490;28;20095;-76
2021/12/02 00:08:44;;;;;;;6.18;1.10;;;4.80;99.90;;;;;;5034426;28;20048;-76
2021/12/02 00:11:10;;;;;;;14.20;1.50;;;4.90;99.90;;;;;;5016818;28;21001;-76
2021/12/02 00:13:52;;;;;;;11.30;1.50;;;4.90;99.90;;;;;;5034462;28;20081;-76
2021/12/02 00:21:50;;;;;;;13.32;2.20;;;4.70;99.90;;;;;;5033979;28;20398;-75
2021/12/02 00:24:19;;;;;;;11.52;1.67;;;4.70;99.90;;;;;;5033662;28;20041;-75
2021/12/02 00:26:47;;;;;;;8.10;1.45;;;4.70;99.90;;;;;;5033981;28;20068;-75
2021/12/02 00:29:20;;;;;;;10.73;1.70;;;4.60;99.90;;;;;;5033789;28;20437;-79
2021/12/02 00:31:48;;;;;;;10.82;1.70;;;4.60;99.90;;;;;;5034251;28;20111;-78
2021/12/02 00:34:15;;;;;;;6.80;1.30;;;4.60;99.90;;;;;;5033710;28;20056;-78
2021/12/02 00:36:41;;;;;;;9.68;1.60;;;4.60;99.90;;;;;;5033963;28;20106;-78
2021/12/02 00:39:16;;;;;;;10.88;1.30;;;4.60;99.90;;;;;;5015964;28;20045;-78
2021/12/02 00:41:43;;;;;;;7.60;1.60;;;4.70;99.90;;;;;;5034120;28;20045;-78
2021/12/02 00:44:10;;;;;;;5.20;1.45;;;4.60;99.90;;;;;;5033569;28;20049;-75
2021/12/02 00:46:36;;;;;;;7.88;1.20;;;4.70;99.90;;;;;;5034167;28;20068;-73
2021/12/02 00:49:07;;;;;;;6.40;1.15;;;4.60;99.90;;;;;;5033379;28;20057;-79
2021/12/02 00:51:35;;;;;;;6.07;0.90;;;4.60;99.90;;;;;;5033769;28;20084;-78
2021/12/02 00:54:07;;;;;;;5.93;0.90;;;4.70;99.90;;;;;;5033286;28;20058;-78
2021/12/02 00:56:33;;;;;;;7.28;1.40;;;4.80;99.90;;;;;;5033482;28;20064;-75
2021/12/02 00:58:59;;;;;;;7.77;1.60;;;4.70;99.90;;;;;;5015488;28;20462;-76
2021/12/02 01:01:27;;;;;;;5.25;1.20;;;4.70;99.90;;;;;;5033157;28;20494;-76
2021/12/02 01:03:59;;;;;;;7.30;1.25;;;4.80;99.90;;;;;;5033508;28;20051;-76
2021/12/02 01:06:26;;;;;;;8.85;1.55;;;4.80;99.90;;;;;;5016320;28;20064;-75
2021/12/02 01:08:53;;;;;;;4.80;1.00;;;4.90;99.90;;;;;;5033335;28;20188;-75
2021/12/02 01:11:19;;;;;;;4.50;1.60;;;4.80;99.90;;;;;;5015572;28;20046;-76
2021/12/02 01:13:46;;;;;;;8.85;1.73;;;4.80;99.90;;;;;;5033256;28;20049;-76
2021/12/02 01:16:13;;;;;;;4.90;1.10;;;4.70;99.90;;;;;;5033018;28;20397;-76
2021/12/02 01:18:39;;;;;;;3.47;1.10;;;4.60;99.90;;;;;;5033090;28;20048;-75
2021/12/02 01:21:05;;;;;;;10.73;1.40;;;4.60;99.90;;;;;;5032846;28;20053;-76
2021/12/02 01:23:33;;;;;;;5.13;1.00;;;4.70;99.90;;;;;;5033051;28;20038;-75
2021/12/02 01:26:03;;;;;;;4.03;0.88;;;4.60;99.90;;;;;;5032777;28;20076;-76
2021/12/02 01:28:30;;;;;;;3.92;0.70;;;4.60;99.90;;;;;;5015873;28;20049;-75
2021/12/02 01:30:57;;;;;;;9.93;1.10;;;4.60;99.90;;;;;;5033057;28;20132;-76
2021/12/02 01:33:26;;;;;;;4.90;0.98;;;4.60;99.90;;;;;;5031886;28;20056;-76
2021/12/02 01:36:02;;;;;;;6.00;0.98;;;4.60;99.90;;;;;;5032900;28;20049;-76
2021/12/02 01:38:29;;;;;;;4.55;0.90;;;4.60;99.90;;;;;;5015148;28;20060;-76
2021/12/02 01:40:57;;;;;;;5.88;0.95;;;4.60;99.90;;;;;;5033003;28;20371;-76
2021/12/02 01:43:40;;;;;;;4.55;0.95;;;4.60;99.90;;;;;;5032503;28;20131;-76
2021/12/02 01:46:06;;;;;;;3.72;0.82;;;4.50;99.90;;;;;;5032673;28;20045;-76
2021/12/02 01:48:35;;;;;;;4.03;0.73;;;4.50;99.90;;;;;;5032614;28;20449;-76
2021/12/02 01:51:04;;;;;;;6.10;0.90;;;4.50;99.90;;;;;;5032454;28;20053;-76
2021/12/02 01:53:35;;;;;;;5.32;0.90;;;4.50;99.90;;;;;;5015101;28;20125;-76
2021/12/02 01:56:13;;;;;;;3.35;0.80;;;4.50;99.90;;;;;;5032322;28;20061;-76
2021/12/02 01:58:52;;;;;;;7.68;1.25;;;4.40;99.90;;;;;;5032726;28;20440;-76
2021/12/02 02:01:27;;;;;;;6.10;0.90;;;4.40;99.90;;;;;;5032424;28;20046;-76
2021/12/02 02:03:54;;;;;;;8.00;1.10;;;4.50;99.90;;;;;;5032745;28;20053;-76
2021/12/02 02:06:36;;;;;;;6.78;1.05;;;4.50;99.90;;;;;;5032351;28;20092;-76
2021/12/02 02:09:03;;;;;;;7.15;1.23;;;4.40;99.90;;;;;;5032441;28;20060;-76
2021/12/02 02:11:31;;;;;;;4.57;1.00;;;4.40;99.90;;;;;;5032544;28;20049;-76
2021/12/02 02:13:58;;;;;;;4.10;0.77;;;4.40;99.90;;;;;;5032538;28;20053;-76
2021/12/02 02:16:26;;;;;;;4.82;1.33;;;4.40;99.90;;;;;;5032281;28;20053;-76
2021/12/02 02:18:52;;;;;;;6.55;1.10;;;4.30;99.90;;;;;;5032441;28;20073;-76
2021/12/02 02:21:20;;;;;;;5.70;0.90;;;4.30;99.90;;;;;;5032242;28;20054;-76
2021/12/02 02:23:51;;;;;;;4.03;0.85;;;4.30;99.90;;;;;;5032490;28;20143;-76
2021/12/02 02:26:24;;;;;;;5.93;1.10;;;4.20;99.90;;;;;;5032206;28;20433;-76
2021/12/02 02:28:50;;;;;;;6.07;1.00;;;4.20;99.90;;;;;;5032464;28;20154;-76
2021/12/02 02:31:17;;;;;;;5.63;0.75;;;4.20;99.90;;;;;;5032105;28;20049;-76
2021/12/02 02:33:48;;;;;;;4.97;1.30;;;4.10;99.90;;;;;;5032611;28;20053;-76
2021/12/02 02:36:15;;;;;;;5.63;1.05;;;4.10;99.90;;;;;;5032098;28;20084;-77
2021/12/02 02:38:41;;;;;;;6.82;1.10;;;4.10;99.90;;;;;;5032556;28;20061;-76
2021/12/02 02:41:10;;;;;;;7.83;1.10;;;4.10;99.90;;;;;;5032004;28;20409;-77
2021/12/02 02:43:36;;;;;;;6.72;1.13;;;4.10;99.90;;;;;;5032640;28;20091;-76
2021/12/02 02:46:02;;;;;;;5.28;1.13;;;4.10;99.90;;;;;;5036014;28;20128;-76
2021/12/02 02:48:30;;;;;;;7.07;1.00;;;4.00;99.90;;;;;;5035648;28;20056;-76
2021/12/02 02:50:56;;;;;;;4.90;1.00;;;4.00;99.90;;;;;;5035900;28;20133;-76
2021/12/02 02:53:24;;;;;;;7.72;0.90;;;4.00;99.90;;;;;;5035595;28;20054;-76
2021/12/02 02:56:27;;;;;;;4.00;0.80;;;3.90;99.90;;;;;;5035761;28;20107;-76
2021/12/02 03:06:35;;;;;;;13.02;1.20;;;4.00;99.90;;;;;;5035364;28;20459;-76
2021/12/02 03:09:08;;;;;;;6.90;1.08;;;4.00;99.90;;;;;;5035811;28;20051;-75
2021/12/02 03:11:45;;;;;;;3.45;0.70;;;4.00;99.90;;;;;;5035813;28;20046;-75
2021/12/02 03:14:13;;;;;;;2.47;0.50;;;4.00;99.90;;;;;;5035287;28;20053;-76
2021/12/02 03:16:46;;;;;;;3.05;0.70;;;4.00;99.90;;;;;;5035481;28;20053;-75
2021/12/02 03:19:23;;;;;;;2.97;0.70;;;4.10;99.90;;;;;;5035146;28;20085;-76
2021/12/02 03:21:49;;;;;;;2.35;0.80;;;4.10;99.90;;;;;;5035462;28;20417;-75
2021/12/02 03:24:15;;;;;;;3.90;0.70;;;4.10;99.90;;;;;;5035082;28;20049;-75
2021/12/02 03:26:41;;;;;;;3.87;0.60;;;4.10;99.90;;;;;;5017829;28;20537;-75
2021/12/02 03:29:07;;;;;;;3.30;0.60;;;4.10;99.90;;;;;;5035248;28;20128;-75
2021/12/02 03:31:33;;;;;;;4.07;1.15;;;4.10;99.90;;;;;;5017305;28;20080;-75
2021/12/02 03:33:59;;;;;;;4.23;0.70;;;4.00;99.90;;;;;;5035209;28;20045;-75
2021/12/02 03:36:26;;;;;;;4.50;0.77;;;4.00;99.90;;;;;;5034856;28;20136;-75
2021/12/02 03:38:52;;;;;;;2.13;0.50;;;4.10;99.90;;;;;;5035198;28;20401;-75
2021/12/02 03:41:18;;;;;;;1.93;0.60;;;4.10;99.90;;;;;;5000505;28;20055;-75
2021/12/02 03:43:46;;;;;;;3.85;0.60;;;4.10;99.90;;;;;;5034991;28;20053;-75
2021/12/02 03:46:15;;;;;;;2.58;0.50;;;4.00;99.90;;;;;;5034687;28;20106;-75
2021/12/02 03:48:42;;;;;;;2.80;0.60;;;4.00;99.90;;;;;;5035098;28;20401;-76
2021/12/02 03:51:09;;;;;;;4.25;0.80;;;3.90;99.90;;;;;;5034865;28;20085;-75
2021/12/02 03:53:35;;;;;;;2.63;0.60;;;3.90;99.90;;;;;;5034659;28;20087;-75
2021/12/02 03:56:02;;;;;;;2.33;0.50;;;3.90;99.90;;;;;;5033562;28;20093;-76
2021/12/02 03:58:29;;;;;;;2.67;0.40;;;3.90;99.90;;;;;;5016661;28;20056;-76
2021/12/02 04:00:55;;;;;;;4.78;0.80;;;3.80;99.90;;;;;;5034693;28;20100;-76
2021/12/02 04:03:21;;;;;;;7.55;0.80;;;3.80;99.90;;;;;;5034360;28;20501;-76
2021/12/02 04:05:47;;;;;;;4.07;0.60;;;3.70;99.90;;;;;;5034559;28;20053;-76
2021/12/02 04:08:12;;;;;;;4.13;0.77;;;3.80;99.90;;;;;;5034509;28;20050;-76
2021/12/02 04:10:40;;;;;;;3.47;0.70;;;3.80;99.90;;;;;;5034203;28;20179;-76
2021/12/02 04:15:49;;;;;;;3.35;0.68;;;3.90;99.90;;;;;;5034390;28;20056;-76
2021/12/02 04:18:15;;;;;;;6.13;0.80;;;3.90;99.90;;;;;;5033963;28;20053;-76
2021/12/02 04:20:41;;;;;;;4.57;0.80;;;3.90;99.90;;;;;;5034508;28;20049;-76
2021/12/02 04:23:07;;;;;;;4.97;0.73;;;4.00;99.90;;;;;;5034221;28;20053;-76
2021/12/02 04:25:32;;;;;;;2.40;0.60;;;4.00;99.90;;;;;;5033867;28;20481;-76
2021/12/02 04:27:58;;;;;;;3.97;0.67;;;4.00;99.90;;;;;;5034082;28;20065;-75
2021/12/02 04:30:26;;;;;;;3.50;0.43;;;3.90;99.90;;;;;;5033759;28;20037;-76
2021/12/02 04:32:52;;;;;;;2.97;0.52;;;4.00;99.90;;;;;;5034028;28;20042;-76
2021/12/02 04:35:18;;;;;;;2.08;0.52;;;4.00;99.90;;;;;;5033735;28;20398;-76
2021/12/02 04:37:44;;;;;;;3.10;0.63;;;4.00;99.90;;;;;;5033944;28;20050;-76
2021/12/02 04:40:15;;;;;;;1.77;0.43;;;4.00;99.90;;;;;;5016144;28;20087;-76
2021/12/02 04:42:41;;;;;;;4.63;0.75;;;4.00;99.90;;;;;;5033605;28;20103;-76
2021/12/02 04:45:07;;;;;;;5.28;0.93;;;3.90;99.90;;;;;;5033793;28;20080;-76
2021/12/02 04:47:33;;;;;;;4.47;0.60;;;3.80;99.90;;;;;;5015719;28;20386;-76
2021/12/02 04:49:59;;;;;;;2.83;0.63;;;3.90;99.90;;;;;;4999937;28;20103;-76
2021/12/02 04:52:24;;;;;;;4.00;0.60;;;3.90;99.90;;;;;;5033393;28;20045;-76
2021/12/02 04:54:50;;;;;;;2.50;0.60;;;3.90;99.90;;;;;;5033587;28;20049;-76
2021/12/02 04:57:16;;;;;;;4.20;0.70;;;4.00;99.90;;;;;;5033147;28;20068;-76
2021/12/02 04:59:42;;;;;;;2.97;0.73;;;4.00;99.90;;;;;;5033171;28;20067;-75
2021/12/02 05:02:07;;;;;;;5.73;0.63;;;4.10;99.90;;;;;;5015824;28;20069;-75
2021/12/02 05:04:33;;;;;;;2.70;0.60;;;4.00;99.90;;;;;;5033253;28;20152;-75
2021/12/02 05:07:00;;;;;;;7.83;0.83;;;4.00;99.90;;;;;;4999571;28;20082;-75
2021/12/02 05:09:26;;;;;;;3.15;0.60;;;4.00;99.90;;;;;;5032689;28;20581;-76
2021/12/02 05:11:51;;;;;;;4.47;0.90;;;4.00;99.90;;;;;;5033285;28;20136;-75
2021/12/02 05:14:17;;;;;;;3.43;0.70;;;4.00;99.90;;;;;;5033280;28;20085;-75
2021/12/02 05:16:43;;;;;;;4.63;0.70;;;4.10;99.90;;;;;;5032936;28;20052;-75
2021/12/02 05:19:09;;;;;;;4.65;0.65;;;4.10;99.90;;;;;;5033056;28;20038;-75
2021/12/02 05:21:35;;;;;;;5.30;1.07;;;4.10;99.90;;;;;;5015185;28;20052;-75
2021/12/02 05:24:01;;;;;;;4.10;0.67;;;4.10;99.90;;;;;;5033196;28;20140;-75
2021/12/02 05:26:27;;;;;;;3.50;0.67;;;4.10;99.90;;;;;;5032808;28;20128;-76
2021/12/02 05:28:54;;;;;;;3.57;0.80;;;4.10;99.90;;;;;;5033106;28;20049;-75
2021/12/02 05:31:21;;;;;;;5.63;0.80;;;4.10;99.90;;;;;;5015749;28;20280;-75
2021/12/02 05:33:47;;;;;;;2.35;0.60;;;4.10;99.90;;;;;;5032393;28;20533;-75
2021/12/02 05:36:16;;;;;;;3.28;0.70;;;4.10;99.90;;;;;;5032904;28;20387;-75
2021/12/02 05:38:41;;;;;;;5.07;0.80;;;4.00;99.90;;;;;;5032535;28;20045;-76
2021/12/02 05:41:07;;;;;;;2.87;0.53;;;4.00;99.90;;;;;;5032749;28;20122;-76
2021/12/02 05:43:34;;;;;;;1.80;0.40;;;4.00;99.90;;;;;;5032560;28;20046;-76
2021/12/02 05:45:59;;;;;;;3.63;0.80;;;4.00;99.90;;;;;;5032782;28;20280;-76
2021/12/02 05:48:25;;;;;;;2.40;0.90;;;4.00;99.90;;;;;;5032544;28;20045;-76
2021/12/02 05:50:51;;;;;;;2.40;0.53;;;4.00;99.90;;;;;;5015625;28;20390;-76
2021/12/02 05:53:17;;;;;;;5.77;0.90;;;4.00;99.90;;;;;;5015190;28;20052;-76
2021/12/02 05:55:44;;;;;;;2.30;0.68;;;4.00;99.90;;;;;;5032106;28;20055;-75
2021/12/02 05:58:14;;;;;;;3.80;0.50;;;4.00;99.90;;;;;;5032807;28;20045;-76
2021/12/02 06:00:40;;;;;;;3.72;0.65;;;3.90;99.90;;;;;;5032420;28;20481;-76
2021/12/02 06:03:06;;;;;;;2.20;0.40;;;3.90;99.90;;;;;;5032664;28;20053;-75
2021/12/02 06:05:33;;;;;;;5.25;0.93;;;3.80;99.90;;;;;;5032295;28;20057;-76
2021/12/02 06:08:02;;;;;;;2.88;0.65;;;3.80;99.90;;;;;;5032984;28;20103;-75
2021/12/02 06:10:29;;;;;;;1.75;0.50;;;3.70;99.90;;;;;;5032033;28;20517;-76
2021/12/02 06:12:55;;;;;;;3.03;0.73;;;3.80;99.90;;;;;;5032562;28;20485;-76
2021/12/02 06:15:21;;;;;;;1.17;0.40;;;3.70;99.90;;;;;;5032560;28;20045;-75
2021/12/02 06:17:47;;;;;;;6.30;0.80;;;3.80;99.90;;;;;;5032354;28;20107;-75
2021/12/02 06:20:17;;;;;;;2.43;0.50;;;3.80;99.90;;;;;;5017883;28;20636;-75
2021/12/02 06:22:44;;;;;;;2.47;0.52;;;3.80;99.90;;;;;;5036269;28;20436;-75
2021/12/02 06:27:38;;;;;;;5.32;0.70;;;3.80;99.90;;;;;;5018703;28;20460;-75
2021/12/02 06:30:05;;;;;;;2.13;0.60;;;3.80;99.90;;;;;;5018942;28;20501;-75
2021/12/02 06:32:30;;;;;;;3.92;0.73;;;3.90;99.90;;;;;;5036035;28;20057;-75
2021/12/02 06:34:56;;;;;;;4.43;0.70;;;3.90;99.90;;;;;;5036581;28;20048;-75
2021/12/02 06:37:22;;;;;;;2.47;0.53;;;3.90;99.90;;;;;;5018531;28;20409;-76
2021/12/02 06:39:48;;;;;;;3.20;0.60;;;3.90;99.90;;;;;;5035794;28;20081;-76
2021/12/02 06:42:14;;;;;;;4.67;0.73;;;3.90;99.90;;;;;;5036065;28;20045;-76
2021/12/02 06:44:40;;;;;;;3.63;0.93;;;3.80;99.90;;;;;;5035696;28;20053;-76
2021/12/02 06:47:06;;;;;;;3.77;0.90;;;3.90;99.90;;;;;;5035830;28;20478;-75
2021/12/02 06:49:33;;;;;;;4.47;0.57;;;3.90;99.90;;;;;;5035643;28;20104;-76
2021/12/02 06:51:59;;;;;;;1.35;0.60;;;3.80;99.90;;;;;;5035952;28;20048;-77
2021/12/02 06:54:25;;;;;;;2.25;0.65;;;3.80;99.90;;;;;;5035826;28;20128;-75
2021/12/02 06:56:52;;;;;;;2.10;0.43;;;3.80;99.90;;;;;;5034719;28;20172;-76
2021/12/02 06:59:18;;;;;;;0.80;0.47;;;3.80;99.90;;;;;;5035700;28;20136;-76
2021/12/02 07:01:45;;;;;;;4.03;1.02;;;3.80;99.90;;;;;;5035474;28;20134;-76
2021/12/02 07:04:11;;;;;;;3.65;0.80;;;3.80;99.90;;;;;;5035699;28;20049;-76
2021/12/02 07:06:38;;;;;;;8.43;1.08;;;3.90;99.90;;;;;;5017754;28;20449;-76
2021/12/02 07:09:05;;;;;;;1.65;0.70;;;3.80;99.90;;;;;;5035439;28;20041;-76
2021/12/02 07:11:31;;;;;;;3.67;0.98;;;3.80;99.90;;;;;;5018091;28;20406;-75
2021/12/02 07:14:02;;;;;;;4.22;1.20;;;3.80;99.90;;;;;;5035283;28;20120;-75
2021/12/02 07:16:28;;;;;;;5.00;0.93;;;3.80;99.90;;;;;;5035292;28;20533;-76
2021/12/02 07:18:56;;;;;;;3.77;1.00;;;3.80;99.90;;;;;;5034917;28;20093;-76
2021/12/02 07:21:24;;;;;;;4.40;0.90;;;3.80;99.90;;;;;;5035347;28;20053;-76
2021/12/02 07:23:51;;;;;;;3.10;0.80;;;3.80;99.90;;;;;;5035014;28;20080;-76
2021/12/02 07:26:18;;;;;;;6.60;0.90;;;3.80;99.90;;;;;;5017772;28;20057;-76
2021/12/02 07:28:47;;;;;;;1.35;0.60;;;3.90;99.90;;;;;;5034860;28;20041;-76
2021/12/02 07:31:13;;;;;;;2.85;1.15;;;3.80;99.90;;;;;;5016244;28;20057;-76
2021/12/02 07:33:42;;;;;;;2.33;0.70;;;3.90;99.90;;;;;;5034768;28;20561;-76
2021/12/02 07:36:08;;;;;;;3.67;0.70;;;3.80;99.90;;;;;;5035016;28;20100;-76
2021/12/02 07:38:40;;;;;;;4.20;0.90;;;3.90;99.90;;;;;;5017410;28;20041;-75
2021/12/02 07:41:06;;;;;;;3.17;0.73;;;3.80;99.90;;;;;;5034924;28;20108;-75
2021/12/02 07:43:33;;;;;;;2.97;0.75;;;3.80;99.90;;;;;;5035150;28;20174;-75
2021/12/02 07:46:00;;;;;;;5.07;0.80;;;3.80;99.90;;;;;;5034624;28;20045;-75
2021/12/02 07:48:26;;;;;;;2.80;1.00;;;3.70;99.90;;;;;;5034903;28;20060;-75
2021/12/02 07:50:56;;;;;;;2.97;0.80;;;3.70;99.90;;;;;;5034474;28;20128;-75
2021/12/02 07:53:24;;;;;;;5.47;1.30;;;3.70;99.90;;;;;;5017027;28;20401;-75
2021/12/02 07:55:52;;;;;;;4.63;1.00;;;3.80;99.90;;;;;;5034392;28;20045;-75
2021/12/02 07:58:20;;;;;;;7.25;0.98;;;3.70;99.90;;;;;;5016500;28;20108;-75
2021/12/02 08:00:46;;;;;;;3.47;1.05;;;3.60;99.90;;;;;;5033931;28;20057;-75
2021/12/02 08:03:12;;;;;;;5.50;0.93;;;3.60;99.90;;;;;;5034292;28;20547;-75
2021/12/02 08:05:39;;;;;;;2.10;0.73;;;3.60;99.90;;;;;;5034286;28;20371;-76
2021/12/02 08:08:05;;;;;;;2.38;0.70;;;3.60;99.90;;;;;;5034103;28;20045;-76
2021/12/02 08:10:32;;;;;;;5.75;0.90;;;3.60;99.90;;;;;;5034205;28;20052;-76
2021/12/02 08:12:59;;;;;;;2.70;0.95;;;3.50;99.90;;;;;;5034043;28;20088;-76
2021/12/02 08:15:27;;;;;;;4.13;0.93;;;3.60;99.90;;;;;;5034211;28;20374;-76
2021/12/02 08:17:55;;;;;;;5.20;1.02;;;3.60;99.90;;;;;;5034043;28;20053;-76
2021/12/02 08:20:22;;;;;;;2.75;0.90;;;3.60;99.90;;;;;;5034206;28;20398;-76
2021/12/02 08:22:48;;;;;;;4.68;1.08;;;3.60;99.90;;;;;;5033770;28;20050;-76
2021/12/02 08:25:14;;;;;;;4.53;0.93;;;3.70;99.90;;;;;;5033910;28;20144;-75
2021/12/02 08:27:40;;;;;;;2.22;0.77;;;3.70;99.90;;;;;;5033893;28;20132;-76
2021/12/02 08:30:09;;;;;;;5.45;1.13;;;3.70;99.90;;;;;;5033825;28;20049;-76
2021/12/02 08:32:37;;;;;;;2.90;0.80;;;3.80;99.90;;;;;;5016211;28;20091;-76
2021/12/02 08:35:03;;;;;;;3.15;0.80;;;3.80;99.90;;;;;;5016126;28;20061;-76
2021/12/02 08:37:31;;;;;;;2.80;0.80;;;3.80;99.90;;;;;;5016244;28;20124;-76
2021/12/02 08:40:00;;;;;;;4.15;1.17;;;3.80;99.90;;;;;;5033222;28;20103;-77
2021/12/02 08:42:32;;;;;;;2.00;0.82;;;3.80;99.90;;;;;;5032898;28;20592;-76
2021/12/02 08:44:58;;;;;;;5.03;0.70;;;3.80;99.90;;;;;;5033260;28;20126;-77
2021/12/02 08:47:25;;;;;;;5.75;0.90;;;3.80;99.90;;;;;;5033446;28;20574;-76
2021/12/02 08:49:53;;;;;;;3.33;0.77;;;3.80;99.90;;;;;;5033138;28;20053;-77
2021/12/02 08:52:20;;;;;;;3.97;0.90;;;3.90;99.90;;;;;;5033428;28;20056;-77
2021/12/02 08:54:47;;;;;;;6.78;1.23;;;3.90;99.90;;;;;;5033073;28;20049;-77
2021/12/02 08:57:13;;;;;;;5.60;0.90;;;3.90;99.90;;;;;;5033131;28;20485;-76
2021/12/02 08:59:42;;;;;;;3.43;0.93;;;4.00;99.90;;;;;;5033514;28;20048;-76
2021/12/02 09:02:08;;;;;;;6.60;1.00;;;4.00;99.90;;;;;;5033281;28;20049;-75
2021/12/02 09:04:33;;;;;;;4.07;0.80;;;3.90;99.90;;;;;;5032989;28;20046;-75
2021/12/02 09:06:59;;;;;;;3.53;0.80;;;4.00;99.90;;;;;;5015443;28;20136;-75
2021/12/02 09:09:26;;;;;;;4.53;1.00;;;3.90;99.90;;;;;;5033276;28;20436;-75
2021/12/02 09:11:54;;;;;;;4.95;0.80;;;4.00;99.90;;;;;;5015447;28;20409;-75
2021/12/02 09:14:20;;;;;;;3.42;0.88;;;4.00;99.90;;;;;;5033031;28;20045;-75
2021/12/02 09:16:45;;;;;;;7.37;0.90;;;4.00;99.90;;;;;;5015093;28;20076;-76
2021/12/02 09:19:11;;;;;;;5.47;0.83;;;4.10;99.90;;;;;;5033314;28;20132;-76
2021/12/02 09:21:37;;;;;;;2.73;1.10;;;4.00;99.90;;;;;;5033097;28;20099;-73
2021/12/02 09:24:04;;;;;;;3.05;0.90;;;4.00;99.90;;;;;;5032704;28;20452;-76
2021/12/02 09:26:30;;;;;;;5.72;1.02;;;4.00;99.90;;;;;;5033022;28;20045;-76
2021/12/02 09:28:57;;;;;;;5.87;1.27;;;3.90;99.90;;;;;;5032473;28;20136;-74
2021/12/02 09:31:23;;;;;;;4.65;0.98;;;3.90;99.90;;;;;;5032573;28;20432;-75
2021/12/02 09:33:49;;;;;;;2.10;0.90;;;3.90;99.90;;;;;;5014733;28;20041;-75
2021/12/02 09:36:16;;;;;;;4.87;0.70;;;4.00;99.90;;;;;;5015501;28;20098;-74
2021/12/02 09:38:43;;;;;;;3.30;1.10;;;4.00;99.90;;;;;;5032515;28;20841;-75
2021/12/02 09:41:09;;;;;;;3.90;0.73;;;4.00;99.90;;;;;;5032523;28;20048;-74
2021/12/02 09:43:35;;;;;;;3.40;0.83;;;4.00;99.90;;;;;;5032974;28;20132;-74
2021/12/02 09:46:01;;;;;;;5.73;1.00;;;4.00;99.90;;;;;;5032681;28;20049;-74
2021/12/02 09:48:28;;;;;;;3.00;0.80;;;4.00;99.90;;;;;;5033004;28;20056;-74
2021/12/02 09:51:04;;;;;;;4.97;1.00;;;4.00;99.90;;;;;;5032617;28;20053;-77
2021/12/02 09:53:35;;;;;;;3.53;1.10;;;4.00;99.90;;;;;;5032133;28;20046;-76
2021/12/02 09:56:15;;;;;;;7.95;1.30;;;4.00;99.90;;;;;;5032682;28;20490;-76
2021/12/02 09:58:42;;;;;;;7.35;1.10;;;4.00;99.90;;;;;;5032477;28;20486;-74
2021/12/02 10:01:10;;;;;;;7.82;1.75;;;4.10;99.90;;;;;;5032394;28;20054;-79
2021/12/02 10:03:39;;;;;;;6.57;1.30;;;4.10;99.90;;;;;;5032536;28;20128;-78
2021/12/02 10:06:13;;;;;;;5.80;0.98;;;4.10;99.90;;;;;;5032414;28;20544;-76
2021/12/02 10:09:08;;;;;;;4.75;1.38;;;4.20;99.90;;;;;;5032803;28;20050;-82
2021/12/02 10:11:59;;;;;;;4.47;1.02;;;4.20;99.90;;;;;;5032802;28;20083;-82
2021/12/02 10:14:34;;;;;;;6.47;1.38;;;4.20;99.90;;;;;;5032904;28;20458;-81
2021/12/02 10:17:39;;;;;;;9.18;1.33;;;4.30;99.90;;;;;;5015000;28;20089;-83
2021/12/02 10:23:43;;;;;;;5.78;1.00;;;4.60;99.90;;;;;;5032624;28;20136;-79
2021/12/02 10:26:09;;;;;;;5.63;1.80;;;4.40;99.90;;;;;;5031162;28;20064;-79
2021/12/02 10:28:41;;;;;;;7.78;1.90;;;4.00;99.90;;;;;;5032443;28;20092;-77
2021/12/02 10:31:09;;;;;;;5.28;1.48;;;3.80;99.90;;;;;;5032239;28;20079;-78
2021/12/02 10:33:39;;;;;;;4.82;0.82;;;3.60;99.90;;;;;;5032418;28;20077;-76
2021/12/02 10:36:30;;;;;;;4.22;1.25;;;3.30;99.90;;;;;;5014758;28;20056;-76
2021/12/02 10:38:59;;;;;;;4.82;1.30;;;3.20;99.90;;;;;;5021285;28;20056;-77
2021/12/02 10:41:27;;;;;;;3.75;0.88;;;;;;;;;;5032393;28;20053;-85
2021/12/02 10:44:11;;;;;;;4.88;0.90;;;3.10;99.90;;;;;;5032021;28;20405;-81
2021/12/02 10:46:52;;;;;;;3.92;1.50;;;3.00;99.90;;;;;;5032477;28;20401;-76
2021/12/02 10:49:19;;;;;;;7.65;2.33;;;2.80;99.90;;;;;;5011477;28;20046;-78
2021/12/02 10:51:53;;;;;;;2.50;1.15;;;2.80;99.90;;;;;;5031589;28;20045;-83
2021/12/02 10:54:23;;;;;;;2.35;1.10;;;2.80;99.90;;;;;;5031718;28;20049;-79
2021/12/02 10:56:52;;;;;;;2.28;0.60;;;2.70;99.90;;;;;;5026731;28;20084;-77
2021/12/02 10:59:31;;;;;;;2.75;0.70;;;2.70;99.90;;;;;;5027392;28;20049;-78
2021/12/02 11:02:04;;;;;;;2.53;1.10;;;2.70;99.90;;;;;;5026423;28;20429;-77
2021/12/02 11:04:42;;;;;;;2.42;0.80;;;2.90;99.90;;;;;;5027240;28;20236;-78
2021/12/02 11:07:13;;;;;;;2.55;0.75;;;2.90;99.90;;;;;;5032706;28;20064;-77
2021/12/02 11:09:40;;;;;;;4.70;1.42;;;3.00;99.90;;;;;;5026896;28;20056;-79
2021/12/02 11:12:13;;;;;;;3.20;1.35;;;3.00;99.90;;;;;;5001128;28;20045;-76
2021/12/02 11:14:42;;;;;;;3.53;1.25;;;3.00;99.90;;;;;;5015844;28;20096;-76
2021/12/02 11:17:13;;;;;;;4.70;1.30;;;3.00;99.90;;;;;;5015038;28;20508;-81
2021/12/02 11:19:43;;;;;;;2.22;0.90;;;3.10;99.90;;;;;;5033295;28;20079;-81
2021/12/02 11:22:12;;;;;;;3.55;1.10;;;3.20;99.90;;;;;;5016938;28;20049;-79
2021/12/02 11:24:38;;;;;;;2.97;1.13;;;3.30;99.90;;;;;;5035361;28;20045;-80
2021/12/02 11:27:12;;;;;;;3.10;1.10;;;3.40;99.90;;;;;;5032701;28;20420;-80
2021/12/02 11:30:03;;;;;;;4.53;1.00;;;3.50;99.90;;;;;;5028328;28;20045;-83
2021/12/02 11:32:39;;;;;;;3.75;0.90;;;3.50;99.90;;;;;;5015701;28;20045;-79
2021/12/02 11:35:12;;;;;;;4.57;1.60;;;3.50;99.90;;;;;;5034108;28;20045;-80
2021/12/02 11:37:39;;;;;;;6.07;1.25;;;3.60;99.90;;;;;;5033221;28;20090;-80
2021/12/02 11:40:09;;;;;;;7.85;1.45;;;3.60;99.90;;;;;;5015373;28;20148;-80
2021/12/02 11:42:38;;;;;;;2.25;0.90;;;3.60;99.90;;;;;;5015992;28;20053;-80
2021/12/02 11:45:06;;;;;;;2.38;0.80;;;3.70;99.90;;;;;;5032217;28;20049;-81
2021/12/02 11:47:32;;;;;;;4.22;1.60;;;3.80;99.90;;;;;;5034092;28;20049;-77
2021/12/02 11:49:58;;;;;;;8.73;1.80;;;3.80;99.90;;;;;;5049450;28;20080;-77
2021/12/02 11:52:24;;;;;;;2.80;0.93;;;3.90;99.90;;;;;;5054119;28;20524;-85
2021/12/02 11:54:51;;;;;;;6.03;1.25;;;3.90;99.90;;;;;;5036913;28;20056;-75
2021/12/02 11:57:18;;;;;;;4.32;1.13;;;4.00;99.90;;;;;;5054127;28;20443;-78
2021/12/02 11:59:43;;;;;;;5.07;0.90;;;4.10;99.90;;;;;;5054643;28;20045;-78
2021/12/02 12:02:09;;;;;;;7.77;1.30;;;4.00;99.90;;;;;;5054105;28;20090;-74
2021/12/02 12:04:38;;;;;;;9.47;1.20;;;4.10;99.90;;;;;;5054335;28;20491;-74
2021/12/02 12:07:14;;;;;;;4.40;1.10;;;4.10;99.90;;;;;;5054036;28;20048;-75
2021/12/02 12:09:40;;;;;;;2.38;0.90;;;4.00;99.90;;;;;;5054089;28;20124;-74
2021/12/02 12:12:07;;;;;;;3.00;0.80;;;4.00;99.90;;;;;;5053893;28;20167;-74
2021/12/02 12:14:35;;;;;;;4.10;0.95;;;4.00;99.90;;;;;;5054179;28;20053;-74
2021/12/02 12:17:09;;;;;;;4.25;1.63;;;3.90;99.90;;;;;;5053217;28;20119;-74
2021/12/02 12:19:44;;;;;;;1.48;0.70;;;3.90;99.90;;;;;;5053888;28;20366;-79
2021/12/02 12:22:35;;;;;;;2.30;0.80;;;3.90;99.90;;;;;;5053605;28;20049;-77
2021/12/02 12:25:07;;;;;;;1.83;0.73;;;3.80;99.90;;;;;;5053828;28;20096;-80
2021/12/02 12:27:35;;;;;;;4.38;1.00;;;3.70;99.90;;;;;;5053845;28;20100;-77
2021/12/02 12:30:01;;;;;;;1.17;0.55;;;3.70;99.90;;;;;;5054000;28;20072;-77
2021/12/02 12:38:23;;;;;;;3.17;1.10;;;3.60;99.90;;;;;;5053406;28;20060;-77
2021/12/02 12:40:57;;;;;;;4.75;1.30;;;3.60;99.90;;;;;;5035848;28;20061;-77
2021/12/02 12:43:25;;;;;;;3.38;1.00;;;3.60;99.90;;;;;;5053207;28;20056;-77
2021/12/02 12:46:11;;;;;;;3.03;0.90;;;3.70;99.90;;;;;;5053455;28;20073;-77
2021/12/02 12:48:37;;;;;;;;;;;3.80;99.90;;;;;;5053986;28;20080;-77
2021/12/02 12:51:11;;;;;;;2.50;1.00;;;3.90;99.90;;;;;;5053345;28;20336;-77
2021/12/02 12:53:40;;;;;;;1.58;0.75;;;4.10;99.90;;;;;;5053555;28;20056;-77
2021/12/02 12:56:11;;;;;;;2.85;0.82;;;4.10;99.90;;;;;;5053507;28;20128;-77
2021/12/02 12:58:40;;;;;;;4.57;1.02;;;4.10;99.90;;;;;;5035205;28;20142;-77
2021/12/02 13:01:19;;;;;;;3.58;0.90;;;4.10;99.90;;;;;;5053318;28;20473;-77
2021/12/02 13:04:04;;;;;;;2.90;0.60;;;4.10;99.90;;;;;;5035723;28;20048;-77
2021/12/02 13:06:33;;;;;;;4.85;0.80;;;4.10;99.90;;;;;;5052936;28;20116;-77
2021/12/02 13:09:03;;;;;;;2.90;0.70;;;4.00;99.90;;;;;;5035534;28;20087;-77
2021/12/02 13:11:32;;;;;;;2.28;0.70;;;4.00;99.90;;;;;;5052743;28;20093;-77
2021/12/02 13:14:00;;;;;;;3.63;0.90;;;4.00;99.90;;;;;;5053071;28;20090;-77
2021/12/02 13:16:26;;;;;;;5.80;1.00;;;4.00;99.90;;;;;;5052886;28;20456;-77
2021/12/02 13:18:59;;;;;;;4.43;0.80;;;4.00;99.90;;;;;;5053117;28;20140;-77
2021/12/02 13:21:28;;;;;;;2.50;0.75;;;4.10;99.90;;;;;;5052914;28;20049;-77
2021/12/02 13:23:59;;;;;;;3.10;0.70;;;4.30;99.90;;;;;;5052741;28;20512;-76
2021/12/02 13:26:41;;;;;;;5.28;0.80;;;4.30;99.90;;;;;;5052535;28;20480;-76
2021/12/02 13:29:11;;;;;;;4.07;0.82;;;4.30;99.90;;;;;;5053322;28;20044;-76
2021/12/02 13:31:40;;;;;;;3.70;0.70;;;4.30;99.90;;;;;;5053220;28;20068;-76
2021/12/02 13:34:11;;;;;;;4.35;0.70;;;4.20;99.90;;;;;;5052408;28;20047;-77